Airfield :
LOGIN :

Register | Disclaimer

   EN    FR    IT 

 










Legend :    VFR   Marginal VFR   IFR   Intensive IFR   Very Intensive IFR
Visi :
Ceiling :
>= 8 km
>= 3000ft
5 to 8 km
1000 to 3000 ft
1500m to 5 km
500 to 1000 ft
800 to 1500m
200 to 500 ft
< 800m
< 200 ft
Symbols :   Thunderstorms  Fog  Heavy snow  Heavy precipitations  Wind > 20 kt
SIGMETs :     Misc.  Thunderstorms  Icing  Turbulence  Mountain Waves  Volcanic Ashes






- Airport Elevation : 129 ft
- IATA code : ZCN


ETHC - Celle

CURRENT METAR :
  • 191520Z 25011KT 9999 FEW028 BKN039 06/03 Q1015 BLU BLU TEMPO GRN

EXPIRED METARs :
  • 191420Z 25009KT 9999 SCT021 BKN036 04/03 Q1015 RESHRA BLU BLU TEMPO GRN
  • 191404Z 26009KT 9000 -SHRA SCT016 SCT023CB BKN036 04/03 Q1015 RESHRA BLU BLU TEMPO GRN
  • 191320Z 27009KT 3800 SHRA SCT010 BKN016 BKN023CB 05/03 Q1014 GRN BLU TEMPO GRN
  • 191248Z 26011G22KT 4000 SHRA BKN016 BKN023CB 05/02 Q1014 GRN BLU TEMPO GRN

TAF TAF ETHC
Valid from the 19 at 15:00 until the 20 at 00:00 UTC


191415Z 1915/1924 26010KT 9999 NSW SCT030 BKN050
TEMPO 1915/1918 27012G25KT 4000 SHRA BKN010 BKN020



MET'MAP, your aeronautical weather chart ! - Copyright ORBIFLY December 2007 - Disclaimer

ORBIFLY MET'MAP TEAM :

Programming & Development : Alexandra Zaïnal
Concept & original design : Baudouin d'Aumeries
Assistance for programming : Marc-Olivier Méhu
Technical & hardware support : Manuel Goepfert

Contact : metmap@orbifly.com




SOURCES & CREDITS :

   NOAA